createdAt,value
2019-06-26T00:00:25.158Z,99.90
2019-06-26T00:01:31.181Z,99.90
2019-06-26T00:02:37.109Z,99.90
2019-06-26T00:03:42.792Z,99.90
2019-06-26T00:04:48.082Z,99.90
2019-06-26T00:05:54.244Z,99.90
2019-06-26T00:06:59.717Z,99.90
2019-06-26T00:08:05.783Z,99.90
2019-06-26T00:09:11.050Z,99.90
2019-06-26T00:10:17.688Z,99.90
2019-06-26T00:11:22.891Z,99.90
2019-06-26T00:12:28.879Z,99.90
2019-06-26T00:13:34.143Z,99.90
2019-06-26T00:14:40.226Z,99.90
2019-06-26T00:15:45.796Z,99.90
2019-06-26T00:16:51.333Z,99.90
2019-06-26T00:17:56.833Z,99.90
2019-06-26T00:19:03.118Z,99.90
2019-06-26T00:20:08.558Z,99.90
2019-06-26T00:21:14.682Z,99.90
2019-06-26T00:22:20.158Z,99.90
2019-06-26T00:23:26.287Z,99.90
2019-06-26T00:24:31.842Z,99.90
2019-06-26T00:25:38.076Z,99.90
2019-06-26T00:26:43.410Z,99.90
2019-06-26T00:27:49.184Z,99.90
2019-06-26T00:28:54.610Z,99.90
2019-06-26T00:30:00.276Z,99.90
2019-06-26T00:31:05.352Z,99.90
2019-06-26T00:32:11.417Z,99.90
2019-06-26T00:33:16.747Z,99.90
2019-06-26T00:34:22.948Z,99.90
2019-06-26T00:35:28.383Z,99.90
2019-06-26T00:36:34.117Z,99.90
2019-06-26T00:37:39.703Z,99.90
2019-06-26T00:38:45.941Z,99.90
2019-06-26T00:39:51.508Z,99.90
2019-06-26T00:40:57.679Z,99.90
2019-06-26T00:42:02.933Z,99.90
2019-06-26T00:43:09.835Z,99.90
2019-06-26T00:44:15.172Z,99.90
2019-06-26T00:45:21.375Z,99.90
2019-06-26T00:46:26.679Z,99.90
2019-06-26T00:47:32.544Z,99.90
2019-06-26T00:48:37.907Z,99.90
2019-06-26T00:49:43.762Z,99.90
2019-06-26T00:50:48.827Z,99.90
2019-06-26T00:51:54.856Z,99.90
2019-06-26T00:53:00.121Z,99.90
2019-06-26T00:54:05.607Z,99.90
2019-06-26T00:55:11.008Z,99.90
2019-06-26T00:56:16.733Z,99.90
2019-06-26T00:57:21.766Z,99.90
2019-06-26T00:58:27.658Z,99.90
2019-06-26T00:59:32.629Z,99.90
2019-06-26T01:00:43.615Z,99.90
2019-06-26T01:01:48.568Z,99.90
2019-06-26T01:02:54.502Z,99.90
2019-06-26T01:04:03.258Z,99.90
2019-06-26T01:05:11.262Z,99.90
2019-06-26T01:06:33.656Z,99.90
2019-06-26T01:07:39.158Z,99.90
2019-06-26T01:08:45.086Z,99.90
2019-06-26T01:09:50.405Z,99.90
2019-06-26T01:10:58.688Z,99.90
2019-06-26T01:12:03.048Z,99.90
2019-06-26T01:13:09.019Z,99.90
2019-06-26T01:14:14.133Z,99.90
2019-06-26T01:15:20.549Z,99.90
2019-06-26T01:16:26.321Z,99.90
2019-06-26T01:17:31.830Z,99.90
2019-06-26T01:18:37.210Z,99.90
2019-06-26T01:19:43.071Z,99.90
2019-06-26T01:20:48.461Z,99.90
2019-06-26T01:21:54.263Z,99.90
2019-06-26T01:22:59.184Z,99.90
2019-06-26T01:24:05.183Z,99.90
2019-06-26T01:25:10.686Z,99.90
2019-06-26T01:26:16.270Z,99.90
2019-06-26T01:27:21.638Z,99.90
2019-06-26T01:28:27.252Z,99.90
2019-06-26T01:29:32.759Z,99.90
2019-06-26T01:30:38.715Z,99.90
2019-06-26T01:31:43.716Z,99.90
2019-06-26T01:32:49.709Z,99.90
2019-06-26T01:33:55.640Z,99.90
2019-06-26T01:35:01.230Z,99.90
2019-06-26T01:36:06.650Z,99.90
2019-06-26T01:37:12.289Z,99.90
2019-06-26T01:38:17.606Z,99.90
2019-06-26T01:39:23.456Z,99.90
2019-06-26T01:40:28.455Z,99.90
2019-06-26T01:41:34.325Z,99.90
2019-06-26T01:42:39.564Z,99.90
2019-06-26T01:43:45.073Z,99.90
2019-06-26T01:44:50.398Z,99.90
2019-06-26T01:45:56.061Z,99.90
2019-06-26T01:47:01.513Z,99.90
2019-06-26T01:48:07.299Z,99.90
2019-06-26T01:49:12.156Z,99.90
2019-06-26T01:50:18.236Z,99.90
2019-06-26T01:51:23.355Z,99.90
2019-06-26T01:52:29.345Z,99.90
2019-06-26T01:53:34.569Z,99.90
2019-06-26T01:54:40.123Z,99.90
2019-06-26T01:55:45.450Z,99.90
2019-06-26T01:56:51.420Z,99.90
2019-06-26T01:57:56.322Z,99.90
2019-06-26T01:59:02.143Z,99.90
2019-06-26T02:00:07.889Z,99.90
2019-06-26T02:01:13.986Z,99.90
2019-06-26T02:02:19.439Z,99.90
2019-06-26T02:03:24.946Z,99.90
2019-06-26T02:04:30.157Z,99.90
2019-06-26T02:05:36.066Z,99.90
2019-06-26T02:06:41.370Z,99.90
2019-06-26T02:07:47.096Z,99.90
2019-06-26T02:08:52.336Z,99.90
2019-06-26T02:09:58.489Z,99.90
2019-06-26T02:11:04.331Z,99.90
2019-06-26T02:12:10.379Z,99.90
2019-06-26T02:13:15.664Z,99.90
2019-06-26T02:14:30.364Z,99.90
2019-06-26T02:15:28.229Z,99.90
2019-06-26T02:16:34.143Z,99.90
2019-06-26T02:17:39.563Z,99.90
2019-06-26T02:18:49.037Z,99.90
2019-06-26T02:19:54.405Z,99.90
2019-06-26T02:21:00.160Z,99.90
2019-06-26T02:22:05.106Z,99.90
2019-06-26T02:23:11.071Z,99.90
2019-06-26T02:24:16.304Z,99.90
2019-06-26T02:25:21.841Z,99.90
2019-06-26T02:26:27.152Z,99.90
2019-06-26T02:27:33.096Z,99.90
2019-06-26T02:28:38.042Z,99.90
2019-06-26T02:29:43.857Z,99.90
2019-06-26T02:30:49.445Z,99.90
2019-06-26T02:31:55.234Z,99.90
2019-06-26T02:33:01.980Z,99.90
2019-06-26T02:34:07.844Z,99.90
2019-06-26T02:35:13.677Z,99.90
2019-06-26T02:36:19.448Z,99.90
2019-06-26T02:37:24.367Z,99.90
2019-06-26T02:38:30.318Z,99.90
2019-06-26T02:39:35.211Z,99.90
2019-06-26T02:40:42.985Z,99.90
2019-06-26T02:41:47.565Z,99.90
2019-06-26T02:42:53.718Z,99.90
2019-06-26T02:43:58.902Z,99.90
2019-06-26T02:45:04.722Z,99.90
2019-06-26T02:46:12.763Z,99.90
2019-06-26T02:47:20.834Z,99.90
2019-06-26T02:48:24.923Z,99.90
2019-06-26T02:49:30.622Z,99.90
2019-06-26T02:50:36.020Z,99.90
2019-06-26T02:51:42.066Z,99.90
2019-06-26T02:52:47.003Z,99.90
2019-06-26T02:53:52.945Z,99.90
2019-06-26T02:54:58.289Z,99.90
2019-06-26T02:56:04.355Z,99.90
2019-06-26T02:57:09.571Z,99.90
2019-06-26T02:58:15.861Z,99.90
2019-06-26T02:59:21.289Z,99.90
2019-06-26T03:00:27.658Z,99.90
2019-06-26T03:01:32.750Z,99.90
2019-06-26T03:02:38.760Z,99.90
2019-06-26T03:03:43.965Z,99.90
2019-06-26T03:04:49.775Z,99.90
2019-06-26T03:05:55.130Z,99.90
2019-06-26T03:07:01.362Z,99.90
2019-06-26T03:08:06.909Z,99.90
2019-06-26T03:09:12.670Z,99.90
2019-06-26T03:10:17.994Z,99.90
2019-06-26T03:11:24.394Z,99.90
2019-06-26T03:12:29.496Z,99.90
2019-06-26T03:13:35.610Z,99.90
2019-06-26T03:14:41.456Z,99.90
2019-06-26T03:15:50.454Z,99.90
2019-06-26T03:16:54.595Z,99.90
2019-06-26T03:18:00.112Z,99.90
2019-06-26T03:19:05.354Z,99.90
2019-06-26T03:20:11.543Z,99.90
2019-06-26T03:21:17.189Z,99.90
2019-06-26T03:22:23.110Z,99.90
2019-06-26T03:23:28.179Z,99.90
2019-06-26T03:24:34.111Z,99.90
2019-06-26T03:25:39.714Z,99.90
2019-06-26T03:26:45.846Z,99.90
2019-06-26T03:27:51.039Z,99.90
2019-06-26T03:28:57.244Z,99.90
2019-06-26T03:30:02.906Z,99.90
2019-06-26T03:31:09.324Z,99.90
2019-06-26T03:32:14.901Z,99.90
2019-06-26T03:33:20.844Z,99.90
2019-06-26T03:34:26.309Z,99.90
2019-06-26T03:35:32.667Z,99.90
2019-06-26T03:36:38.328Z,99.90
2019-06-26T03:37:44.543Z,99.90
2019-06-26T03:38:50.050Z,99.90
2019-06-26T03:39:55.644Z,99.90
2019-06-26T03:41:00.691Z,99.90
2019-06-26T03:42:06.479Z,99.90
2019-06-26T03:43:11.443Z,99.90
2019-06-26T03:44:16.951Z,99.90
2019-06-26T03:45:26.015Z,99.90
2019-06-26T03:46:30.316Z,99.90
2019-06-26T03:47:35.679Z,99.90
2019-06-26T03:48:41.704Z,99.90
2019-06-26T03:49:47.407Z,99.90
2019-06-26T03:50:53.459Z,99.90
2019-06-26T03:51:58.906Z,99.90
2019-06-26T03:53:08.468Z,99.90
2019-06-26T03:54:13.544Z,99.90
2019-06-26T03:55:19.590Z,99.90
2019-06-26T03:56:25.093Z,99.90
2019-06-26T03:57:31.391Z,99.90
2019-06-26T03:58:36.622Z,99.90
2019-06-26T03:59:42.745Z,99.90
2019-06-26T04:00:48.573Z,99.90
2019-06-26T04:01:54.768Z,99.90
2019-06-26T04:03:00.339Z,99.90
2019-06-26T04:04:10.901Z,99.90
2019-06-26T04:05:13.801Z,99.90
2019-06-26T04:06:19.549Z,99.90
2019-06-26T04:07:24.661Z,99.90
2019-06-26T04:08:30.673Z,99.90
2019-06-26T04:09:36.463Z,99.90
2019-06-26T04:10:43.675Z,99.90
2019-06-26T04:11:49.952Z,99.90
2019-06-26T04:12:56.346Z,99.90
2019-06-26T04:14:01.755Z,99.90
2019-06-26T04:15:08.329Z,99.90
2019-06-26T04:16:13.593Z,99.90
2019-06-26T04:17:19.579Z,99.90
2019-06-26T04:18:24.876Z,99.90
2019-06-26T04:19:30.794Z,99.90
2019-06-26T04:20:36.534Z,99.90
2019-06-26T04:21:42.074Z,99.90
2019-06-26T04:22:48.649Z,99.90
2019-06-26T04:23:54.360Z,99.90
2019-06-26T04:24:59.622Z,99.90
2019-06-26T04:26:05.257Z,99.90
2019-06-26T04:27:10.096Z,99.90
2019-06-26T04:28:16.250Z,99.90
2019-06-26T04:29:21.178Z,99.90
2019-06-26T04:30:26.751Z,99.90
2019-06-26T04:31:31.530Z,99.90
2019-06-26T04:32:37.979Z,99.90
2019-06-26T04:33:42.907Z,99.90
2019-06-26T04:34:48.225Z,99.90
2019-06-26T04:35:53.958Z,99.90
2019-06-26T04:36:59.491Z,99.90
2019-06-26T04:38:04.532Z,99.90
2019-06-26T04:39:10.002Z,99.90
2019-06-26T04:40:15.375Z,99.90
2019-06-26T04:41:20.878Z,99.90
2019-06-26T04:42:25.897Z,99.90
2019-06-26T04:43:31.259Z,99.90
2019-06-26T04:44:36.079Z,99.90
2019-06-26T04:45:54.130Z,99.90
2019-06-26T04:46:48.184Z,99.90
2019-06-26T04:47:53.638Z,99.90
2019-06-26T04:48:58.418Z,99.90
2019-06-26T04:50:03.832Z,99.90
2019-06-26T04:51:08.703Z,99.90
2019-06-26T04:52:14.084Z,99.90
2019-06-26T04:53:19.006Z,99.90
2019-06-26T04:54:24.447Z,99.90
2019-06-26T04:55:29.184Z,99.90
2019-06-26T04:56:34.744Z,99.90
2019-06-26T04:57:39.667Z,99.90
2019-06-26T04:58:44.983Z,99.90
2019-06-26T04:59:49.869Z,99.90
2019-06-26T05:00:55.323Z,99.90
2019-06-26T05:02:00.112Z,99.90
2019-06-26T05:03:05.759Z,99.90
2019-06-26T05:04:10.570Z,99.90
2019-06-26T05:05:16.468Z,99.90
2019-06-26T05:06:21.436Z,99.90
2019-06-26T05:07:26.828Z,99.90
2019-06-26T05:08:31.716Z,99.90
2019-06-26T05:09:37.210Z,99.90
2019-06-26T05:10:41.954Z,99.90
2019-06-26T05:11:49.341Z,99.90
2019-06-26T05:12:53.919Z,99.90
2019-06-26T05:13:59.820Z,99.90
2019-06-26T05:15:05.965Z,99.90
2019-06-26T05:16:15.844Z,99.90
2019-06-26T05:17:20.236Z,99.90
2019-06-26T05:18:25.608Z,99.90
2019-06-26T05:19:30.582Z,99.90
2019-06-26T05:20:36.149Z,99.90
2019-06-26T05:21:40.920Z,99.90
2019-06-26T05:22:46.535Z,99.90
2019-06-26T05:23:53.565Z,99.90
2019-06-26T05:25:00.194Z,99.90
2019-06-26T05:26:05.213Z,99.90
2019-06-26T05:27:10.604Z,99.90
2019-06-26T05:28:15.454Z,99.90
2019-06-26T05:29:20.916Z,99.90
2019-06-26T05:30:25.775Z,99.90
2019-06-26T05:31:31.280Z,99.90
2019-06-26T05:32:36.227Z,99.90
2019-06-26T05:33:42.642Z,99.90
2019-06-26T05:34:47.588Z,99.90
2019-06-26T05:35:52.923Z,99.90
2019-06-26T05:36:59.121Z,99.90
2019-06-26T05:38:04.828Z,99.90
2019-06-26T05:39:09.594Z,99.90
2019-06-26T05:40:15.889Z,99.90
2019-06-26T05:41:20.663Z,99.90
2019-06-26T05:42:26.127Z,99.90
2019-06-26T05:43:31.146Z,99.90
2019-06-26T05:44:36.601Z,99.90
2019-06-26T05:45:41.630Z,99.90
2019-06-26T05:46:47.298Z,99.90
2019-06-26T05:47:52.055Z,99.90
2019-06-26T05:48:57.703Z,99.90
2019-06-26T05:50:02.686Z,99.90
2019-06-26T05:51:08.067Z,99.90
2019-06-26T05:52:16.469Z,99.90
2019-06-26T05:53:20.104Z,99.90
2019-06-26T05:54:25.152Z,99.90
2019-06-26T05:55:30.746Z,99.90
2019-06-26T05:56:35.513Z,99.90
2019-06-26T05:57:42.152Z,99.90
2019-06-26T05:58:47.340Z,99.90
2019-06-26T05:59:52.699Z,99.90
2019-06-26T06:00:57.627Z,99.90
2019-06-26T06:02:03.120Z,99.90
2019-06-26T06:03:08.158Z,99.90
2019-06-26T06:04:13.741Z,99.90
2019-06-26T06:05:18.571Z,99.90
2019-06-26T06:06:40.345Z,99.90
2019-06-26T06:07:30.750Z,99.90
2019-06-26T06:08:36.084Z,99.90
2019-06-26T06:09:42.220Z,99.90
2019-06-26T06:10:47.685Z,99.90
2019-06-26T06:11:52.599Z,99.90
2019-06-26T06:12:58.223Z,99.90
2019-06-26T06:14:03.091Z,99.90
2019-06-26T06:15:08.940Z,99.90
2019-06-26T06:16:13.881Z,99.90
2019-06-26T06:17:19.195Z,99.90
2019-06-26T06:18:23.959Z,99.90
2019-06-26T06:19:29.490Z,99.90
2019-06-26T06:20:38.885Z,99.90
2019-06-26T06:21:44.566Z,99.90
2019-06-26T06:22:49.595Z,99.90
2019-06-26T06:23:55.372Z,99.90
2019-06-26T06:25:00.257Z,99.90
2019-06-26T06:26:05.824Z,99.90
2019-06-26T06:27:10.866Z,99.90
2019-06-26T06:28:16.275Z,99.90
2019-06-26T06:29:22.772Z,99.90
2019-06-26T06:30:29.343Z,99.90
2019-06-26T06:31:34.363Z,99.90
2019-06-26T06:32:39.959Z,99.90
2019-06-26T06:33:44.782Z,99.90
2019-06-26T06:34:50.325Z,99.90
2019-06-26T06:35:55.577Z,99.90
2019-06-26T06:37:00.952Z,99.90
2019-06-26T06:38:06.016Z,99.90
2019-06-26T06:39:11.708Z,99.90
2019-06-26T06:40:16.958Z,99.90
2019-06-26T06:41:22.530Z,99.90
2019-06-26T06:42:27.316Z,99.90
2019-06-26T06:43:33.045Z,99.90
2019-06-26T06:44:38.059Z,99.90
2019-06-26T06:45:43.461Z,99.90
2019-06-26T06:47:02.717Z,99.90
2019-06-26T06:47:55.620Z,99.90
2019-06-26T06:49:00.589Z,99.90
2019-06-26T06:50:06.728Z,99.90
2019-06-26T06:51:11.495Z,99.90
2019-06-26T06:52:17.276Z,99.90
2019-06-26T06:53:22.096Z,99.90
2019-06-26T06:54:27.445Z,99.90
2019-06-26T06:55:32.750Z,99.90
2019-06-26T06:56:38.233Z,99.90
2019-06-26T06:57:43.300Z,99.90
2019-06-26T06:58:48.832Z,99.90
2019-06-26T06:59:53.639Z,99.90
2019-06-26T07:01:00.312Z,99.90
2019-06-26T07:02:05.420Z,99.90
2019-06-26T07:03:10.828Z,99.90
2019-06-26T07:04:15.777Z,99.90
2019-06-26T07:05:21.733Z,99.90
2019-06-26T07:06:26.594Z,99.90
2019-06-26T07:07:32.155Z,99.90
2019-06-26T07:08:37.079Z,99.90
2019-06-26T07:09:42.578Z,99.90
2019-06-26T07:10:47.579Z,99.90
2019-06-26T07:11:52.955Z,99.90
2019-06-26T07:12:58.212Z,99.90
2019-06-26T07:14:03.679Z,99.90
2019-06-26T07:15:09.816Z,99.90
2019-06-26T07:16:15.310Z,99.90
2019-06-26T07:17:21.424Z,99.90
2019-06-26T07:18:27.341Z,99.90
2019-06-26T07:19:32.319Z,99.90
2019-06-26T07:20:37.672Z,99.90
2019-06-26T07:21:42.657Z,99.90
2019-06-26T07:22:48.183Z,99.90
2019-06-26T07:23:52.967Z,99.90
2019-06-26T07:24:58.644Z,99.90
2019-06-26T07:26:03.948Z,99.90
2019-06-26T07:27:09.597Z,99.90
2019-06-26T07:28:14.735Z,99.90
2019-06-26T07:29:22.243Z,99.90
2019-06-26T07:30:27.147Z,99.90
2019-06-26T07:31:32.705Z,99.90
2019-06-26T07:32:37.521Z,99.90
2019-06-26T07:33:42.920Z,99.90
2019-06-26T07:34:47.783Z,99.90
2019-06-26T07:35:53.226Z,99.90
2019-06-26T07:36:58.276Z,99.90
2019-06-26T07:38:03.792Z,99.90
2019-06-26T07:39:08.934Z,99.90
2019-06-26T07:40:14.783Z,99.90
2019-06-26T07:41:19.766Z,99.90
2019-06-26T07:42:25.475Z,99.90
2019-06-26T07:43:30.387Z,99.90
2019-06-26T07:44:35.835Z,99.90
2019-06-26T07:45:40.772Z,99.90
2019-06-26T07:46:46.407Z,99.90
2019-06-26T07:47:51.154Z,99.90
2019-06-26T07:48:57.698Z,99.90
2019-06-26T07:50:02.814Z,99.90
2019-06-26T07:51:08.282Z,99.90
2019-06-26T07:52:13.324Z,99.90
2019-06-26T07:53:18.932Z,99.90
2019-06-26T07:54:24.496Z,99.90
2019-06-26T07:55:32.444Z,99.90
2019-06-26T07:56:37.685Z,99.90
2019-06-26T07:57:43.756Z,99.90
2019-06-26T07:58:48.742Z,99.90
2019-06-26T07:59:54.798Z,99.90
2019-06-26T08:01:00.297Z,99.90
2019-06-26T08:02:06.400Z,99.90
2019-06-26T08:03:11.851Z,99.90
2019-06-26T08:04:17.417Z,99.90
2019-06-26T08:05:22.656Z,99.90
2019-06-26T08:06:29.001Z,99.90
2019-06-26T08:07:34.540Z,99.90
2019-06-26T08:08:40.961Z,99.90
2019-06-26T08:09:48.510Z,99.90
2019-06-26T08:10:54.357Z,99.90
2019-06-26T08:11:59.406Z,99.90
2019-06-26T08:13:05.547Z,99.90
2019-06-26T08:14:10.906Z,99.90
2019-06-26T08:15:16.700Z,99.90
2019-06-26T08:16:22.166Z,99.90
2019-06-26T08:17:27.937Z,99.90
2019-06-26T08:18:33.054Z,99.90
2019-06-26T08:19:39.019Z,99.90
2019-06-26T08:21:00.531Z,99.90
2019-06-26T08:21:51.573Z,99.90
2019-06-26T08:22:56.833Z,99.90
2019-06-26T08:24:02.846Z,99.90
2019-06-26T08:25:08.375Z,99.90
2019-06-26T08:26:14.445Z,99.90
2019-06-26T08:27:19.883Z,99.90
2019-06-26T08:28:25.624Z,99.90
2019-06-26T08:29:31.071Z,99.90
2019-06-26T08:30:37.067Z,99.90
2019-06-26T08:31:41.984Z,99.90
2019-06-26T08:32:48.477Z,99.90
2019-06-26T08:33:53.927Z,99.90
2019-06-26T08:34:59.457Z,99.90
2019-06-26T08:36:05.074Z,99.90
2019-06-26T08:37:10.808Z,99.90
2019-06-26T08:38:16.426Z,99.90
2019-06-26T08:39:22.851Z,99.90
2019-06-26T08:40:28.375Z,99.90
2019-06-26T08:41:34.330Z,99.90
2019-06-26T08:42:39.493Z,99.90
2019-06-26T08:43:45.793Z,99.90
2019-06-26T08:44:50.716Z,99.90
2019-06-26T08:45:56.323Z,99.90
2019-06-26T08:47:01.824Z,99.90
2019-06-26T08:48:22.986Z,99.90
2019-06-26T08:49:24.851Z,99.90
2019-06-26T08:50:22.915Z,99.90
2019-06-26T08:51:28.810Z,99.90
2019-06-26T08:52:35.099Z,99.90
2019-06-26T08:53:40.151Z,99.90
2019-06-26T08:54:46.198Z,99.90
2019-06-26T08:55:51.587Z,99.90
2019-06-26T08:56:58.065Z,99.90
2019-06-26T08:58:03.838Z,99.90
2019-06-26T08:59:09.497Z,99.90
2019-06-26T09:00:14.902Z,99.90
2019-06-26T09:01:21.174Z,99.90
2019-06-26T09:02:28.237Z,99.90
2019-06-26T09:03:34.316Z,99.90
2019-06-26T09:04:39.933Z,99.90
2019-06-26T09:05:48.451Z,99.90
2019-06-26T09:06:53.482Z,99.90
2019-06-26T09:07:59.749Z,99.90
2019-06-26T09:09:07.444Z,99.90
2019-06-26T09:10:13.863Z,99.20
2019-06-26T09:11:19.211Z,99.90
2019-06-26T09:12:28.345Z,99.50
2019-06-26T09:13:33.801Z,99.90
2019-06-26T09:14:39.357Z,99.90
2019-06-26T09:15:48.632Z,99.90
2019-06-26T09:16:53.003Z,99.90
2019-06-26T09:17:58.890Z,99.80
2019-06-26T09:19:04.829Z,99.90
2019-06-26T09:20:10.882Z,96.40
2019-06-26T09:21:17.004Z,96.00
2019-06-26T09:22:22.097Z,96.80
2019-06-26T09:23:30.952Z,96.80
2019-06-26T09:24:34.702Z,97.20
2019-06-26T09:25:40.468Z,96.60
2019-06-26T09:26:45.768Z,96.50
2019-06-26T09:27:51.274Z,95.80
2019-06-26T09:28:57.006Z,96.20
2019-06-26T09:30:03.180Z,96.70
2019-06-26T09:31:09.173Z,98.20
2019-06-26T09:32:15.916Z,97.20
2019-06-26T09:33:21.086Z,98.40
2019-06-26T09:34:27.103Z,97.20
2019-06-26T09:35:32.221Z,96.40
2019-06-26T09:36:38.238Z,97.10
2019-06-26T09:37:43.913Z,98.40
2019-06-26T09:38:49.615Z,96.60
2019-06-26T09:39:55.460Z,97.00
2019-06-26T09:41:01.825Z,96.10
2019-06-26T09:42:09.318Z,95.30
2019-06-26T09:43:15.074Z,94.40
2019-06-26T09:44:21.485Z,95.50
2019-06-26T09:45:27.871Z,94.40
2019-06-26T09:46:33.479Z,94.70
2019-06-26T09:47:39.803Z,93.70
2019-06-26T09:48:52.835Z,94.00
2019-06-26T09:49:53.559Z,94.90
2019-06-26T09:50:59.399Z,94.60
2019-06-26T09:52:06.067Z,94.30
2019-06-26T09:53:11.858Z,94.50
2019-06-26T09:54:18.075Z,95.30
2019-06-26T09:55:23.385Z,97.00
2019-06-26T09:56:28.915Z,94.30
2019-06-26T09:57:34.540Z,93.60
2019-06-26T09:58:40.431Z,93.10
2019-06-26T09:59:45.478Z,92.20
2019-06-26T10:00:51.551Z,92.70
2019-06-26T10:01:56.782Z,92.10
2019-06-26T10:03:02.511Z,91.10
2019-06-26T10:04:07.980Z,91.40
2019-06-26T10:05:14.011Z,93.90
2019-06-26T10:06:19.387Z,90.50
2019-06-26T10:07:25.360Z,91.50
2019-06-26T10:08:30.422Z,92.40
2019-06-26T10:09:36.381Z,91.20
2019-06-26T10:10:41.909Z,89.80
2019-06-26T10:11:49.067Z,91.80
2019-06-26T10:12:54.204Z,91.10
2019-06-26T10:14:00.318Z,90.40
2019-06-26T10:15:07.232Z,91.60
2019-06-26T10:16:13.032Z,90.20
2019-06-26T10:17:19.451Z,91.40
2019-06-26T10:18:25.559Z,90.50
2019-06-26T10:19:31.376Z,91.30
2019-06-26T10:20:37.436Z,89.60
2019-06-26T10:21:44.217Z,90.70
2019-06-26T10:22:50.432Z,90.30
2019-06-26T10:23:55.495Z,92.40
2019-06-26T10:25:01.385Z,90.90
2019-06-26T10:26:06.750Z,91.50
2019-06-26T10:27:12.270Z,89.90
2019-06-26T10:28:18.025Z,90.80
2019-06-26T10:29:24.302Z,88.20
2019-06-26T10:30:30.687Z,85.60
2019-06-26T10:31:37.638Z,86.20
2019-06-26T10:32:43.514Z,85.30
2019-06-26T10:33:49.328Z,81.90
2019-06-26T10:34:54.851Z,82.90
2019-06-26T10:36:00.754Z,84.90
2019-06-26T10:37:06.795Z,84.90
2019-06-26T10:38:13.041Z,81.20
2019-06-26T10:39:18.766Z,83.20
2019-06-26T10:40:24.990Z,80.50
2019-06-26T10:41:31.080Z,78.80
2019-06-26T10:42:37.560Z,76.10
2019-06-26T10:43:43.365Z,75.00
2019-06-26T10:44:49.770Z,72.40
2019-06-26T10:45:55.407Z,67.70
2019-06-26T10:47:01.811Z,69.80
2019-06-26T10:48:07.027Z,67.60
2019-06-26T10:49:26.383Z,65.00
2019-06-26T10:50:21.676Z,66.70
2019-06-26T10:51:28.152Z,65.70
2019-06-26T10:52:34.044Z,64.40
2019-06-26T10:53:42.564Z,63.80
2019-06-26T10:54:50.719Z,60.90
2019-06-26T10:55:58.139Z,61.00
2019-06-26T10:57:04.050Z,59.90
2019-06-26T10:58:10.285Z,60.10
2019-06-26T10:59:16.162Z,60.60
2019-06-26T11:00:23.119Z,60.60
2019-06-26T11:01:29.333Z,60.40
2019-06-26T11:02:35.678Z,59.20
2019-06-26T11:03:41.580Z,58.00
2019-06-26T11:04:48.259Z,58.00
2019-06-26T11:05:53.717Z,55.40
2019-06-26T11:07:00.517Z,57.50
2019-06-26T11:08:06.101Z,57.30
2019-06-26T11:09:12.575Z,58.20
2019-06-26T11:10:20.285Z,56.30
2019-06-26T11:11:27.099Z,56.60
2019-06-26T11:12:33.220Z,56.70
2019-06-26T11:13:39.977Z,60.10
2019-06-26T11:14:46.375Z,58.50
2019-06-26T11:15:52.823Z,59.80
2019-06-26T11:16:59.123Z,59.80
2019-06-26T11:18:05.765Z,60.80
2019-06-26T11:19:12.161Z,63.00
2019-06-26T11:20:18.966Z,61.80
2019-06-26T11:21:25.223Z,62.30
2019-06-26T11:22:31.067Z,61.50
2019-06-26T11:23:36.091Z,62.90
2019-06-26T11:24:41.894Z,62.40
2019-06-26T11:25:47.417Z,63.20
2019-06-26T11:26:53.825Z,60.50
2019-06-26T11:27:59.798Z,61.40
2019-06-26T11:29:06.208Z,61.60
2019-06-26T11:30:12.418Z,61.00
2019-06-26T11:31:18.644Z,62.40
2019-06-26T11:32:24.567Z,63.00
2019-06-26T11:33:30.917Z,62.90
2019-06-26T11:34:36.901Z,61.20
2019-06-26T11:35:44.282Z,58.40
2019-06-26T11:37:03.293Z,59.90
2019-06-26T11:37:57.864Z,57.90
2019-06-26T11:39:03.420Z,60.10
2019-06-26T11:40:10.051Z,58.80
2019-06-26T11:41:15.717Z,58.40
2019-06-26T11:42:22.112Z,60.10
2019-06-26T11:43:27.596Z,60.00
2019-06-26T11:44:33.717Z,58.10
2019-06-26T11:45:39.709Z,58.20
2019-06-26T11:46:45.915Z,59.90
2019-06-26T11:47:52.774Z,56.20
2019-06-26T11:48:59.720Z,55.10
2019-06-26T11:50:06.837Z,54.90
2019-06-26T11:51:13.058Z,52.40
2019-06-26T11:52:19.244Z,54.30
2019-06-26T11:53:25.795Z,53.20
2019-06-26T11:54:33.801Z,53.10
2019-06-26T11:55:40.304Z,52.60
2019-06-26T11:56:45.814Z,53.10
2019-06-26T11:57:52.341Z,52.50
2019-06-26T11:58:58.021Z,51.60
2019-06-26T12:00:04.381Z,53.10
2019-06-26T12:01:09.739Z,52.80
2019-06-26T12:02:15.978Z,53.40
2019-06-26T12:03:21.577Z,51.40
2019-06-26T12:04:27.891Z,55.00
2019-06-26T12:05:33.715Z,53.60
2019-06-26T12:06:40.121Z,51.70
2019-06-26T12:07:45.705Z,54.10
2019-06-26T12:08:52.051Z,53.10
2019-06-26T12:09:57.847Z,54.20
2019-06-26T12:11:04.341Z,56.20
2019-06-26T12:12:10.161Z,57.10
2019-06-26T12:13:16.615Z,56.90
2019-06-26T12:14:22.022Z,54.30
2019-06-26T12:15:28.770Z,52.60
2019-06-26T12:16:34.795Z,52.80
2019-06-26T12:17:40.946Z,52.30
2019-06-26T12:18:46.915Z,52.10
2019-06-26T12:19:53.321Z,51.80
2019-06-26T12:20:58.974Z,50.90
2019-06-26T12:22:05.372Z,52.80
2019-06-26T12:23:10.918Z,52.40
2019-06-26T12:24:17.931Z,54.30
2019-06-26T12:25:23.960Z,53.40
2019-06-26T12:26:30.708Z,54.50
2019-06-26T12:27:36.386Z,53.00
2019-06-26T12:28:42.776Z,51.20
2019-06-26T12:29:48.586Z,50.30
2019-06-26T12:30:54.716Z,51.40
2019-06-26T12:32:00.563Z,53.20
2019-06-26T12:33:06.135Z,50.40
2019-06-26T12:34:11.196Z,51.50
2019-06-26T12:35:17.170Z,51.40
2019-06-26T12:36:22.676Z,51.50
2019-06-26T12:37:37.806Z,53.00
2019-06-26T12:38:35.958Z,51.90
2019-06-26T12:39:42.185Z,53.30
2019-06-26T12:40:48.349Z,55.10
2019-06-26T12:41:54.580Z,52.80
2019-06-26T12:43:02.037Z,53.20
2019-06-26T12:44:09.609Z,53.00
2019-06-26T12:45:17.888Z,52.70
2019-06-26T12:46:25.879Z,52.20
2019-06-26T12:47:33.392Z,53.30
2019-06-26T12:48:41.998Z,52.40
2019-06-26T12:49:50.933Z,52.30
2019-06-26T12:50:58.027Z,53.20
2019-06-26T12:52:03.958Z,52.90
2019-06-26T12:53:10.137Z,54.30
2019-06-26T12:54:16.157Z,55.00
2019-06-26T12:55:21.779Z,53.10
2019-06-26T12:56:27.555Z,53.80
2019-06-26T12:57:33.376Z,55.40
2019-06-26T12:58:38.920Z,55.60
2019-06-26T12:59:56.661Z,55.90
2019-06-26T13:00:52.079Z,57.40
2019-06-26T13:01:58.055Z,65.00
2019-06-26T13:03:03.758Z,69.50
2019-06-26T13:04:10.015Z,70.40
2019-06-26T13:05:16.180Z,70.20
2019-06-26T13:06:22.309Z,69.50
2019-06-26T13:07:28.036Z,70.10
2019-06-26T13:08:34.340Z,72.30
2019-06-26T13:09:40.722Z,74.80
2019-06-26T13:10:50.006Z,76.90
2019-06-26T13:11:56.493Z,76.20
2019-06-26T13:13:02.949Z,78.50
2019-06-26T13:14:09.196Z,78.40
2019-06-26T13:15:15.973Z,76.00
2019-06-26T13:16:21.667Z,79.70
2019-06-26T13:17:28.124Z,80.10
2019-06-26T13:18:33.603Z,78.40
2019-06-26T13:19:39.949Z,80.80
2019-06-26T13:20:52.779Z,82.40
2019-06-26T13:21:54.278Z,83.40
2019-06-26T13:23:00.177Z,84.40
2019-06-26T13:24:07.879Z,84.40
2019-06-26T13:25:16.087Z,86.60
2019-06-26T13:26:22.725Z,85.30
2019-06-26T13:27:28.529Z,85.40
2019-06-26T13:28:35.155Z,85.70
2019-06-26T13:29:41.287Z,85.50
2019-06-26T13:30:48.006Z,86.30
2019-06-26T13:31:53.988Z,87.10
2019-06-26T13:33:00.270Z,89.00
2019-06-26T13:34:06.550Z,89.40
2019-06-26T13:35:13.188Z,84.80
2019-06-26T13:36:19.064Z,86.00
2019-06-26T13:37:24.845Z,87.10
2019-06-26T13:38:29.990Z,88.00
2019-06-26T13:39:35.758Z,88.70
2019-06-26T13:40:41.753Z,84.70
2019-06-26T13:41:48.588Z,87.80
2019-06-26T13:42:54.210Z,85.80
2019-06-26T13:44:00.684Z,85.30
2019-06-26T13:45:07.065Z,85.50
2019-06-26T13:46:13.010Z,83.50
2019-06-26T13:47:17.781Z,82.90
2019-06-26T13:48:23.177Z,86.50
2019-06-26T13:49:28.887Z,84.00
2019-06-26T13:50:35.287Z,86.70
2019-06-26T13:51:41.527Z,88.50
2019-06-26T13:52:48.088Z,89.00
2019-06-26T13:53:53.280Z,90.90
2019-06-26T13:54:58.870Z,90.70
2019-06-26T13:56:03.991Z,91.50
2019-06-26T13:57:09.454Z,88.60
2019-06-26T13:58:14.295Z,90.60
2019-06-26T13:59:19.684Z,90.00
2019-06-26T14:00:24.875Z,89.40
2019-06-26T14:01:30.236Z,89.80
2019-06-26T14:02:35.184Z,90.30
2019-06-26T14:03:40.546Z,90.50
2019-06-26T14:04:45.269Z,88.80
2019-06-26T14:05:50.651Z,88.80
2019-06-26T14:06:55.385Z,86.30
2019-06-26T14:08:00.829Z,87.30